createdAt,value
2022-08-26T00:00:13.043Z,52.3
2022-08-26T00:02:05.950Z,52.4
2022-08-26T00:04:06.352Z,58.2
2022-08-26T00:06:07.053Z,50.4
2022-08-26T00:08:08.736Z,53.3
2022-08-26T00:10:07.913Z,51.2
2022-08-26T00:12:08.803Z,59.1
2022-08-26T00:14:07.931Z,55
2022-08-26T00:16:09.257Z,53.7
2022-08-26T00:18:16.774Z,57.5
2022-08-26T00:20:11.633Z,56.6
2022-08-26T00:22:09.349Z,55.1
2022-08-26T00:24:09.423Z,51.2
2022-08-26T00:26:09.759Z,50.6
2022-08-26T00:28:10.968Z,47
2022-08-26T00:30:14.602Z,52.9
2022-08-26T00:32:10.886Z,50.1
2022-08-26T00:34:12.069Z,49.2
2022-08-26T00:36:19.921Z,52.7
2022-08-26T00:38:12.031Z,54.7
2022-08-26T00:40:18.953Z,52.2
2022-08-26T00:42:12.621Z,49
2022-08-26T00:44:12.897Z,51.7
2022-08-26T00:46:18.214Z,50
2022-08-26T00:48:16.266Z,43.8
2022-08-26T00:50:17.843Z,50.7
2022-08-26T00:52:18.060Z,51.4
2022-08-26T00:54:16.492Z,49.4
2022-08-26T00:56:19.829Z,44.9
2022-08-26T00:58:15.249Z,50.7
2022-08-26T01:00:20.109Z,47.6
2022-08-26T01:02:20.880Z,46.8
2022-08-26T01:04:20.703Z,49.9
2022-08-26T01:06:16.587Z,50
2022-08-26T01:08:16.938Z,57.8
2022-08-26T01:10:21.645Z,49.3
2022-08-26T01:12:22.213Z,49.8
2022-08-26T01:14:19.131Z,52
2022-08-26T01:16:18.604Z,51.8
2022-08-26T01:18:18.981Z,56.6
2022-08-26T01:20:29.775Z,55.6
2022-08-26T01:22:28.143Z,55.3
2022-08-26T01:24:19.860Z,52.8
2022-08-26T01:26:24.691Z,51.7
2022-08-26T01:28:25.737Z,54.7
2022-08-26T01:30:20.817Z,56.3
2022-08-26T01:32:22.383Z,53.6
2022-08-26T01:34:24.697Z,52
2022-08-26T01:36:22.337Z,61
2022-08-26T01:38:23.643Z,55.4
2022-08-26T01:40:26.925Z,62.2
2022-08-26T01:42:25.129Z,58.9
2022-08-26T01:44:28.240Z,54
2022-08-26T01:46:25.809Z,61.8
2022-08-26T01:48:29.475Z,52
2022-08-26T01:50:30.482Z,52.2
2022-08-26T01:52:27.989Z,57.4
2022-08-26T01:54:25.417Z,56.6
2022-08-26T01:56:24.886Z,50.6
2022-08-26T01:58:34.089Z,56.1
2022-08-26T02:00:25.830Z,48
2022-08-26T02:02:26.888Z,49.9
2022-08-26T02:04:32.029Z,54
2022-08-26T02:06:26.546Z,59.2
2022-08-26T02:08:31.494Z,66.4
2022-08-26T02:10:27.131Z,70.3
2022-08-26T02:12:27.758Z,63.7
2022-08-26T02:14:32.295Z,62.6
2022-08-26T02:16:32.002Z,56.5
2022-08-26T02:18:32.378Z,56.8
2022-08-26T02:20:28.716Z,54
2022-08-26T02:22:30.615Z,62.6
2022-08-26T02:24:44.506Z,54.6
2022-08-26T02:26:29.573Z,59.6
2022-08-26T02:28:35.373Z,60.4
2022-08-26T02:30:32.672Z,65.3
2022-08-26T02:32:32.133Z,72.9
2022-08-26T02:34:32.587Z,84.1
2022-08-26T02:36:31.165Z,234.6
2022-08-26T02:38:31.643Z,63.6
2022-08-26T02:40:34.254Z,91.1
2022-08-26T02:42:32.156Z,71.6
2022-08-26T02:44:32.514Z,77.3
2022-08-26T02:46:32.869Z,121.4
2022-08-26T02:48:33.323Z,57
2022-08-26T02:50:33.380Z,48.2
2022-08-26T02:52:33.868Z,51.7
2022-08-26T02:54:34.373Z,45.8
2022-08-26T02:56:34.599Z,47.2
2022-08-26T02:58:34.815Z,51.3
2022-08-26T03:00:36.802Z,52.3
2022-08-26T03:02:35.325Z,51.8
2022-08-26T03:04:36.231Z,53.1
2022-08-26T03:06:36.832Z,55.3
2022-08-26T03:08:36.238Z,50.6
2022-08-26T03:10:36.701Z,57.5
2022-08-26T03:12:37.008Z,59.5
2022-08-26T03:14:37.657Z,50.5
2022-08-26T03:16:37.584Z,52.8
2022-08-26T03:18:38.093Z,56
2022-08-26T03:20:38.148Z,54.8
2022-08-26T03:22:39.455Z,51.2
2022-08-26T03:24:39.145Z,57.6
2022-08-26T03:26:39.111Z,54.9
2022-08-26T03:28:39.987Z,73.3
2022-08-26T03:30:39.769Z,62.8
2022-08-26T03:32:41.439Z,60
2022-08-26T03:34:40.537Z,60.7
2022-08-26T03:36:41.643Z,69.3
2022-08-26T03:38:41.175Z,71.6
2022-08-26T03:40:42.977Z,67.5
2022-08-26T03:42:44.424Z,75
2022-08-26T03:44:42.451Z,71.7
2022-08-26T03:46:42.946Z,73.1
2022-08-26T03:48:43.417Z,78.3
2022-08-26T03:50:43.520Z,75.1
2022-08-26T03:52:44.308Z,76.7
2022-08-26T03:54:44.335Z,74.5
2022-08-26T03:56:46.591Z,86.6
2022-08-26T03:58:45.938Z,87.3
2022-08-26T04:00:45.688Z,83.2
2022-08-26T04:02:47.674Z,87.2
2022-08-26T04:04:46.377Z,80.7
2022-08-26T04:06:46.803Z,75.3
2022-08-26T04:08:47.419Z,73.2
2022-08-26T04:10:47.665Z,80.8
2022-08-26T04:12:48.222Z,82
2022-08-26T04:14:48.573Z,81.1
2022-08-26T04:16:49.602Z,80.7
2022-08-26T04:18:49.678Z,83.8
2022-08-26T04:20:50.074Z,80.7
2022-08-26T04:22:50.579Z,83
2022-08-26T04:24:51.354Z,82.4
2022-08-26T04:26:51.941Z,80.8
2022-08-26T04:28:53.947Z,84.3
2022-08-26T04:30:52.666Z,89.8
2022-08-26T04:32:53.591Z,92.2
2022-08-26T04:34:53.639Z,90.2
2022-08-26T04:36:55.061Z,100.7
2022-08-26T04:38:55.224Z,105.8
2022-08-26T04:40:55.560Z,110.2
2022-08-26T04:42:55.773Z,118.9
2022-08-26T04:44:56.400Z,106.7
2022-08-26T04:46:57.359Z,115.1
2022-08-26T04:48:58.023Z,108.7
2022-08-26T04:50:59.115Z,121
2022-08-26T04:52:59.307Z,111.1
2022-08-26T04:54:59.164Z,115.7
2022-08-26T04:56:59.784Z,150.9
2022-08-26T04:59:01.042Z,120.7
2022-08-26T05:01:00.879Z,134.7
2022-08-26T05:03:01.408Z,130.6
2022-08-26T05:05:02.909Z,135.7
2022-08-26T05:07:03.209Z,139.1
2022-08-26T05:09:03.338Z,123.8
2022-08-26T05:11:05.001Z,143.8
2022-08-26T05:13:04.482Z,166.4
2022-08-26T05:15:06.332Z,150.4
2022-08-26T05:17:05.467Z,147.3
2022-08-26T05:19:06.851Z,140.4
2022-08-26T05:21:06.820Z,132.2
2022-08-26T05:23:07.637Z,130.7
2022-08-26T05:25:08.319Z,144.7
2022-08-26T05:27:11.692Z,130.3
2022-08-26T05:29:09.171Z,128.9
2022-08-26T05:31:13.409Z,142.8
2022-08-26T05:33:10.881Z,148.9
2022-08-26T05:35:11.115Z,130.6
2022-08-26T05:37:11.507Z,135.4
2022-08-26T05:39:12.132Z,138.7
2022-08-26T05:41:16.183Z,138
2022-08-26T05:43:14.055Z,137.5
2022-08-26T05:45:14.029Z,136.2
2022-08-26T05:47:14.713Z,151
2022-08-26T05:49:15.934Z,147.9
2022-08-26T05:51:15.994Z,134
2022-08-26T05:53:19.527Z,142.9
2022-08-26T05:55:18.133Z,154.4
2022-08-26T05:57:18.495Z,148.9
2022-08-26T05:59:24.054Z,148
2022-08-26T06:01:21.872Z,156.9
2022-08-26T06:03:19.889Z,152.2
2022-08-26T06:05:21.493Z,169.2
2022-08-26T06:07:21.259Z,151.7
2022-08-26T06:09:21.898Z,165.8
2022-08-26T06:11:25.259Z,161.3
2022-08-26T06:13:25.321Z,163.2
2022-08-26T06:15:23.813Z,154.5
2022-08-26T06:17:24.571Z,141.8
2022-08-26T06:19:25.361Z,151.5
2022-08-26T06:21:28.469Z,171.6
2022-08-26T06:23:28.315Z,165.1
2022-08-26T06:25:27.173Z,142.7
2022-08-26T06:27:32.151Z,140.9
2022-08-26T06:29:30.625Z,140.9
2022-08-26T06:31:30.841Z,145.8
2022-08-26T06:33:30.025Z,155.1
2022-08-26T06:35:36.032Z,147.5
2022-08-26T06:37:31.429Z,136.7
2022-08-26T06:39:32.111Z,126.5
2022-08-26T06:41:33.676Z,133.4
2022-08-26T06:43:33.450Z,134.4
2022-08-26T06:45:34.176Z,132.3
2022-08-26T06:47:34.865Z,127.9
2022-08-26T06:49:35.684Z,124.7
2022-08-26T06:51:38.659Z,130.4
2022-08-26T06:53:38.128Z,126
2022-08-26T06:55:39.780Z,125.8
2022-08-26T06:57:41.083Z,128.1
2022-08-26T06:59:39.164Z,125.5
2022-08-26T07:01:43.047Z,123.8
2022-08-26T07:03:40.619Z,122.8
2022-08-26T07:05:41.345Z,115.6
2022-08-26T07:07:42.116Z,125.5
2022-08-26T07:09:42.889Z,119
2022-08-26T07:11:44.766Z,113
2022-08-26T07:13:44.813Z,118.1
2022-08-26T07:15:45.087Z,108.6
2022-08-26T07:17:45.842Z,120.6
2022-08-26T07:19:47.534Z,105.5
2022-08-26T07:21:47.196Z,104.7
2022-08-26T07:23:48.378Z,100.9
2022-08-26T07:25:48.635Z,116.7
2022-08-26T07:27:54.198Z,80.4
2022-08-26T07:29:50.108Z,106
2022-08-26T07:31:50.768Z,70.4
2022-08-26T07:33:52.245Z,60.8
2022-08-26T07:35:52.070Z,67.3
2022-08-26T07:37:56.823Z,59.7
2022-08-26T07:39:53.542Z,57.7
2022-08-26T07:41:54.317Z,64.5
2022-08-26T07:43:54.932Z,55.3
2022-08-26T07:45:55.693Z,57.9
2022-08-26T07:47:56.278Z,52.1
2022-08-26T07:49:58.092Z,59.3
2022-08-26T07:51:57.983Z,60.6
2022-08-26T07:53:58.515Z,63
2022-08-26T07:55:58.976Z,58
2022-08-26T07:57:59.760Z,60.5
2022-08-26T08:00:01.105Z,55.2
2022-08-26T08:02:01.141Z,51.5
2022-08-26T08:04:02.496Z,54.6
2022-08-26T08:06:02.536Z,58.7
2022-08-26T08:08:27.222Z,55.4
2022-08-26T08:10:09.605Z,54.6
2022-08-26T08:12:05.139Z,54.1
2022-08-26T08:14:08.560Z,66.8
2022-08-26T08:16:06.434Z,59.1
2022-08-26T08:18:06.960Z,60.4
2022-08-26T08:20:08.848Z,68.6
2022-08-26T08:22:18.049Z,67
2022-08-26T08:24:09.366Z,73.9
2022-08-26T08:26:10.525Z,63
2022-08-26T08:28:10.279Z,39.6
2022-08-26T08:30:13.904Z,45.4
2022-08-26T08:32:15.466Z,42.7
2022-08-26T08:34:12.084Z,30.6
2022-08-26T08:36:12.837Z,40.7
2022-08-26T08:38:13.494Z,32.8
2022-08-26T08:40:15.264Z,39.8
2022-08-26T08:42:32.320Z,40.6
2022-08-26T08:44:18.822Z,37.9
2022-08-26T08:46:16.596Z,41.8
2022-08-26T08:48:27.336Z,29.7
2022-08-26T08:50:23.288Z,37.5
2022-08-26T08:52:28.677Z,35.6
2022-08-26T08:54:19.439Z,32.5
2022-08-26T08:56:27.013Z,55.7
2022-08-26T08:58:25.158Z,50.3
2022-08-26T09:00:21.353Z,36.8
2022-08-26T09:02:30.311Z,42
2022-08-26T09:04:41.038Z,37.9
2022-08-26T09:06:24.458Z,67.9
2022-08-26T09:08:29.478Z,33.8
2022-08-26T09:10:31.218Z,32.6
2022-08-26T09:12:29.480Z,29.8
2022-08-26T09:14:27.089Z,32.6
2022-08-26T09:16:36.642Z,39.9
2022-08-26T09:18:39.470Z,40.4
2022-08-26T09:20:39.541Z,31.6
2022-08-26T09:22:30.114Z,28.3
2022-08-26T09:24:36.348Z,35.1
2022-08-26T09:26:43.014Z,35.5
2022-08-26T09:28:31.164Z,24.6
2022-08-26T09:30:33.315Z,30.4
2022-08-26T09:32:32.265Z,30.7
2022-08-26T09:34:32.765Z,31.2
2022-08-26T09:36:39.507Z,37.1
2022-08-26T09:38:34.097Z,41.6
2022-08-26T09:40:36.082Z,31.3
2022-08-26T09:42:35.508Z,41.5
2022-08-26T09:44:52.918Z,53
2022-08-26T09:48:41.026Z,37
2022-08-26T09:50:50.461Z,34.9
2022-08-26T09:52:40.320Z,33
2022-08-26T09:54:40.325Z,52.1
2022-08-26T09:56:40.199Z,39
2022-08-26T09:58:44.008Z,33.8
2022-08-26T10:00:52.095Z,35.4
2022-08-26T10:02:47.688Z,27.3
2022-08-26T10:04:49.950Z,37.9
2022-08-26T10:06:55.585Z,37.9
2022-08-26T10:08:48.157Z,36.3
2022-08-26T10:10:46.044Z,32
2022-08-26T10:12:54.016Z,32.7
2022-08-26T10:14:51.261Z,32.1
2022-08-26T10:16:53.686Z,30.2
2022-08-26T10:18:59.423Z,30
2022-08-26T10:20:56.579Z,31.5
2022-08-26T10:22:54.450Z,26.1
2022-08-26T10:24:55.268Z,29.4
2022-08-26T10:27:02.222Z,33.2
2022-08-26T10:28:56.939Z,39.1
2022-08-26T10:30:58.845Z,31.7
2022-08-26T10:32:56.999Z,37.9
2022-08-26T10:34:53.141Z,35.9
2022-08-26T10:37:13.761Z,30.5
2022-08-26T10:38:54.570Z,29.3
2022-08-26T10:41:01.530Z,37
2022-08-26T10:43:07.192Z,35.6
2022-08-26T10:45:07.586Z,34.5
2022-08-26T10:47:00.777Z,28.3
2022-08-26T10:49:03.280Z,33.1
2022-08-26T10:51:00.392Z,30
2022-08-26T10:53:08.669Z,26.1
2022-08-26T10:55:09.524Z,28.2
2022-08-26T10:57:09.599Z,33.3
2022-08-26T10:59:10.383Z,32.4
2022-08-26T11:01:10.385Z,26.5
2022-08-26T11:03:09.541Z,26.1
2022-08-26T11:05:06.018Z,29.7
2022-08-26T11:07:32.998Z,23.8
2022-08-26T11:09:06.222Z,24.3
2022-08-26T11:11:05.011Z,23.2
2022-08-26T11:13:06.211Z,27.9
2022-08-26T11:15:09.264Z,24.8
2022-08-26T11:17:09.240Z,27.9
2022-08-26T11:19:09.983Z,26.9
2022-08-26T11:21:46.068Z,38.1
2022-08-26T11:23:40.360Z,31.1
2022-08-26T11:25:12.123Z,33.8
2022-08-26T11:27:35.668Z,38.6
2022-08-26T11:29:13.156Z,35.7
2022-08-26T11:31:27.528Z,33.5
2022-08-26T11:33:41.740Z,24.3
2022-08-26T11:35:42.443Z,36.4
2022-08-26T11:37:16.844Z,29.3
2022-08-26T11:39:21.664Z,28.4
2022-08-26T11:41:20.216Z,32.8
2022-08-26T11:43:21.800Z,34.1
2022-08-26T11:45:21.961Z,23.1
2022-08-26T11:47:26.483Z,26.5
2022-08-26T11:49:17.503Z,28.9
2022-08-26T11:51:23.232Z,34.7
2022-08-26T11:53:19.549Z,22.8
2022-08-26T11:55:19.693Z,35.3
2022-08-26T11:57:20.127Z,27.2
2022-08-26T11:59:29.043Z,27.6
2022-08-26T12:01:25.920Z,32.7
2022-08-26T12:03:25.850Z,32
2022-08-26T12:05:30.802Z,27.1
2022-08-26T12:07:26.987Z,34.2
2022-08-26T12:09:26.990Z,21.7
2022-08-26T12:11:27.050Z,41.6
2022-08-26T12:13:26.491Z,40.4
2022-08-26T12:15:29.553Z,25.8
2022-08-26T12:17:27.411Z,26.2
2022-08-26T12:19:32.668Z,52.9
2022-08-26T12:21:31.494Z,22.8
2022-08-26T12:23:39.799Z,27.5
2022-08-26T12:25:30.717Z,20.8
2022-08-26T12:27:31.583Z,29.6
2022-08-26T12:29:30.316Z,27.9
2022-08-26T12:31:33.610Z,28.9
2022-08-26T12:33:33.568Z,28.5
2022-08-26T12:35:32.323Z,30.7
2022-08-26T12:37:36.632Z,23.5
2022-08-26T12:39:35.832Z,17.4
2022-08-26T12:41:40.307Z,17
2022-08-26T12:43:39.077Z,33.3
2022-08-26T12:45:37.482Z,24.1
2022-08-26T12:47:42.942Z,17.6
2022-08-26T12:49:38.554Z,31.7
2022-08-26T12:51:37.658Z,27.7
2022-08-26T12:53:42.442Z,27.8
2022-08-26T12:55:41.801Z,29.2
2022-08-26T12:57:38.852Z,29.9
2022-08-26T12:59:40.120Z,35.3
2022-08-26T13:01:44.173Z,64.1
2022-08-26T13:03:42.731Z,44.8
2022-08-26T13:05:41.336Z,34.8
2022-08-26T13:07:41.854Z,61.1
2022-08-26T13:09:42.466Z,54.9
2022-08-26T13:11:57.589Z,33.7
2022-08-26T13:13:44.731Z,35.1
2022-08-26T13:15:44.167Z,32
2022-08-26T13:17:44.696Z,31.6
2022-08-26T13:19:45.230Z,33.4
2022-08-26T13:21:49.102Z,34.8
2022-08-26T13:23:47.048Z,25.2
2022-08-26T13:25:46.833Z,23.9
2022-08-26T13:27:47.536Z,28.8
2022-08-26T13:29:47.860Z,25
2022-08-26T13:31:48.567Z,23.2
2022-08-26T13:33:48.981Z,25.2
2022-08-26T13:35:49.357Z,22.9
2022-08-26T13:37:49.928Z,21
2022-08-26T13:39:50.427Z,28.4
2022-08-26T13:41:51.568Z,25.7
2022-08-26T13:43:51.484Z,28.6
2022-08-26T13:45:52.100Z,28.2
2022-08-26T13:47:52.479Z,26.2
2022-08-26T13:49:52.973Z,22.2
2022-08-26T13:51:53.517Z,27.6
2022-08-26T13:53:54.947Z,22.1
2022-08-26T13:55:54.522Z,25.8
2022-08-26T13:57:55.529Z,27.6
2022-08-26T13:59:56.787Z,22.6
2022-08-26T14:01:56.017Z,24.9
2022-08-26T14:03:56.809Z,31.9
2022-08-26T14:05:57.090Z,28.7
2022-08-26T14:07:57.553Z,32.5
2022-08-26T14:09:58.148Z,30.5
2022-08-26T14:12:00.979Z,29.4
2022-08-26T14:13:59.363Z,23.5
2022-08-26T14:16:00.383Z,20.8
2022-08-26T14:18:02.049Z,25.1
2022-08-26T14:20:01.603Z,24
2022-08-26T14:22:01.448Z,21.9
2022-08-26T14:24:02.427Z,20.4
2022-08-26T14:26:02.422Z,23.2
2022-08-26T14:28:03.299Z,23.1
2022-08-26T14:30:04.085Z,22.7
2022-08-26T14:32:09.995Z,20.8
2022-08-26T14:34:07.166Z,23.7
2022-08-26T14:36:06.154Z,25.6
2022-08-26T14:38:05.945Z,27.8
2022-08-26T14:40:07.432Z,23.5
2022-08-26T14:42:07.427Z,24
2022-08-26T14:44:11.654Z,27.4
2022-08-26T14:46:07.849Z,28.7
2022-08-26T14:48:08.765Z,25
2022-08-26T14:50:09.359Z,28.3
2022-08-26T14:52:09.526Z,28.8
2022-08-26T14:54:11.467Z,30.6
2022-08-26T14:56:14.862Z,28.9
2022-08-26T14:58:11.198Z,29.1
2022-08-26T15:00:12.165Z,30.2
2022-08-26T15:02:29.756Z,24.1
2022-08-26T15:04:13.302Z,25.9
2022-08-26T15:06:14.705Z,31.4
2022-08-26T15:08:13.928Z,33.8
2022-08-26T15:10:15.542Z,30.3
2022-08-26T15:12:14.883Z,34.3
2022-08-26T15:14:19.895Z,34.8
2022-08-26T15:16:16.665Z,35.9
2022-08-26T15:18:16.550Z,38.7
2022-08-26T15:20:17.251Z,40.5
2022-08-26T15:22:17.878Z,37.2
2022-08-26T15:24:20.531Z,42.1
2022-08-26T15:26:19.682Z,41.7
2022-08-26T15:28:19.218Z,63.1
2022-08-26T15:30:19.763Z,58.3
2022-08-26T15:32:20.330Z,50.5
2022-08-26T15:34:20.899Z,42.9
2022-08-26T15:36:21.390Z,38.9
2022-08-26T15:38:21.913Z,32.2
2022-08-26T15:40:24.851Z,33.1
2022-08-26T15:42:23.242Z,34.3
2022-08-26T15:44:25.271Z,35.6
2022-08-26T15:46:24.091Z,32.4
2022-08-26T15:48:24.840Z,26.7
2022-08-26T15:50:25.045Z,22.9
2022-08-26T15:52:25.532Z,21.4
2022-08-26T15:54:26.003Z,23.6
2022-08-26T15:56:29.385Z,24.1
2022-08-26T15:58:28.105Z,27.5
2022-08-26T16:00:27.568Z,25.1
2022-08-26T16:02:32.226Z,23.9
2022-08-26T16:04:29.189Z,21.7
2022-08-26T16:06:31.576Z,24.3
2022-08-26T16:08:30.104Z,25
2022-08-26T16:10:30.084Z,23.8
2022-08-26T16:12:30.623Z,26.8
2022-08-26T16:14:31.516Z,28.7
2022-08-26T16:16:32.189Z,24.3
2022-08-26T16:18:32.239Z,26.4
2022-08-26T16:20:34.724Z,27.6
2022-08-26T16:22:33.357Z,32.9
2022-08-26T16:24:33.723Z,24.5
2022-08-26T16:26:37.007Z,22.6
2022-08-26T16:28:34.782Z,25.6
2022-08-26T16:30:35.263Z,26.4
2022-08-26T16:32:35.774Z,27.3
2022-08-26T16:34:36.252Z,25.8
2022-08-26T16:36:37.745Z,25.6
2022-08-26T16:38:38.778Z,22.9
2022-08-26T16:40:37.903Z,22.4
2022-08-26T16:42:38.228Z,24.1
2022-08-26T16:44:39.704Z,24.6
2022-08-26T16:46:39.253Z,24.7
2022-08-26T16:48:40.023Z,23.7
2022-08-26T16:50:40.232Z,30.9
2022-08-26T16:52:40.950Z,26.1
2022-08-26T16:54:41.276Z,30.6
2022-08-26T16:56:41.603Z,29.6
2022-08-26T16:58:42.210Z,28
2022-08-26T17:00:42.639Z,20.8
2022-08-26T17:02:44.247Z,25.4
2022-08-26T17:04:46.156Z,27.3
2022-08-26T17:06:45.540Z,24.9
2022-08-26T17:08:44.564Z,26.1
2022-08-26T17:10:44.805Z,21.7
2022-08-26T17:12:45.323Z,22.1
2022-08-26T17:14:45.826Z,25
2022-08-26T17:16:47.267Z,30
2022-08-26T17:18:46.714Z,23.6
2022-08-26T17:20:47.323Z,25.8
2022-08-26T17:22:50.006Z,22.4
2022-08-26T17:24:48.013Z,22.4
2022-08-26T17:26:50.783Z,25.2
2022-08-26T17:28:49.648Z,22.2
2022-08-26T17:30:49.480Z,24.3
2022-08-26T17:32:50.392Z,19.1
2022-08-26T17:34:50.331Z,21.8
2022-08-26T17:36:50.968Z,21.1
2022-08-26T17:38:54.215Z,20
2022-08-26T17:40:51.736Z,19.5
2022-08-26T17:42:52.199Z,21.4
2022-08-26T17:44:52.595Z,25.3
2022-08-26T17:46:53.217Z,21.3
2022-08-26T17:48:54.247Z,22.1
2022-08-26T17:50:54.050Z,24.1
2022-08-26T17:52:54.362Z,19.8
2022-08-26T17:54:55.166Z,19.8
2022-08-26T17:56:55.399Z,19.4
2022-08-26T17:58:57.900Z,22.8
2022-08-26T18:00:56.195Z,25.9
2022-08-26T18:02:56.704Z,24.9
2022-08-26T18:04:57.130Z,26.1
2022-08-26T18:06:57.475Z,27.2
2022-08-26T18:08:58.492Z,25.4
2022-08-26T18:10:58.397Z,22.9
2022-08-26T18:12:58.790Z,23.9
2022-08-26T18:14:59.693Z,29.5
2022-08-26T18:16:59.854Z,29.6
2022-08-26T18:19:00.504Z,30
2022-08-26T18:21:01.374Z,27.1
2022-08-26T18:23:01.004Z,24
2022-08-26T18:25:01.355Z,21.7
2022-08-26T18:27:01.819Z,26.1
2022-08-26T18:29:03.626Z,28.7
2022-08-26T18:31:02.671Z,25.5
2022-08-26T18:33:03.419Z,33.5
2022-08-26T18:35:03.960Z,36
2022-08-26T18:39:06.271Z,26.6
2022-08-26T18:41:04.809Z,25.7
2022-08-26T18:43:05.080Z,29.5
2022-08-26T18:45:07.326Z,30.4
2022-08-26T18:47:06.123Z,28
2022-08-26T18:49:06.585Z,34.2
2022-08-26T18:51:07.941Z,29
2022-08-26T18:53:07.364Z,26.9
2022-08-26T18:55:07.920Z,29.3
2022-08-26T18:57:08.101Z,30.9
2022-08-26T18:59:09.149Z,26
2022-08-26T19:01:09.126Z,27.8
2022-08-26T19:03:18.513Z,25.5
2022-08-26T19:05:10.091Z,39.8
2022-08-26T19:07:10.162Z,31.6
2022-08-26T19:09:11.860Z,35.8
2022-08-26T19:11:11.183Z,35.1
2022-08-26T19:13:11.533Z,41.7
2022-08-26T19:15:11.887Z,33.6
2022-08-26T19:17:12.559Z,37.3
2022-08-26T19:19:12.735Z,35
2022-08-26T19:21:14.122Z,38.1
2022-08-26T19:23:30.981Z,28.3
2022-08-26T19:25:14.198Z,31.2
2022-08-26T19:27:15.092Z,29.2
2022-08-26T19:29:15.753Z,31.3
2022-08-26T19:31:15.396Z,26.6
2022-08-26T19:33:16.593Z,31.1
2022-08-26T19:35:15.848Z,30.1
2022-08-26T19:37:16.394Z,32.6
2022-08-26T19:39:16.680Z,35.5
2022-08-26T19:41:19.643Z,32.4
2022-08-26T19:43:17.430Z,27.9
2022-08-26T19:45:25.287Z,31.6
2022-08-26T19:47:18.233Z,30.4
2022-08-26T19:49:18.661Z,29.2
2022-08-26T19:51:21.550Z,32
2022-08-26T19:53:19.460Z,29.6
2022-08-26T19:55:21.364Z,29.6
2022-08-26T19:57:20.289Z,30.1
2022-08-26T19:59:20.656Z,28.5
2022-08-26T20:01:22.115Z,33.1
2022-08-26T20:03:21.561Z,30.2
2022-08-26T20:05:23.557Z,29.3
2022-08-26T20:07:22.668Z,29.1
2022-08-26T20:09:22.926Z,24.8
2022-08-26T20:11:23.122Z,24.3
2022-08-26T20:13:23.425Z,39.7
2022-08-26T20:15:24.063Z,36.8
2022-08-26T20:17:24.743Z,25.3
2022-08-26T20:19:24.814Z,27
2022-08-26T20:21:25.801Z,28.1
2022-08-26T20:23:25.630Z,25.1
2022-08-26T20:25:25.939Z,24.1
2022-08-26T20:27:26.461Z,22.1
2022-08-26T20:29:26.867Z,20.1
2022-08-26T20:31:28.109Z,22.5
2022-08-26T20:33:27.798Z,24.5
2022-08-26T20:35:28.106Z,25.2
2022-08-26T20:37:28.687Z,23.9
2022-08-26T20:39:29.052Z,28.8
2022-08-26T20:41:29.382Z,24.7
2022-08-26T20:43:29.844Z,28
2022-08-26T20:45:30.336Z,27.3
2022-08-26T20:47:30.666Z,21.5
2022-08-26T20:49:31.513Z,24.3
2022-08-26T20:51:32.295Z,23.9
2022-08-26T20:53:32.920Z,20.9
2022-08-26T20:55:32.381Z,25.4
2022-08-26T20:57:32.919Z,21.5
2022-08-26T20:59:33.435Z,24.9
2022-08-26T21:01:36.135Z,23
2022-08-26T21:03:35.170Z,24.6
2022-08-26T21:05:35.047Z,28
2022-08-26T21:07:35.020Z,28.2
2022-08-26T21:09:35.540Z,25.7
2022-08-26T21:11:37.104Z,27.4
2022-08-26T21:14:01.180Z,27.7
2022-08-26T21:15:37.170Z,28.7
2022-08-26T21:17:37.319Z,22
2022-08-26T21:19:37.829Z,26.1
2022-08-26T21:21:38.613Z,20.9
2022-08-26T21:23:38.697Z,24.3
2022-08-26T21:25:39.435Z,23.8
2022-08-26T21:27:39.376Z,22.8
2022-08-26T21:29:39.807Z,23.7
2022-08-26T21:31:45.670Z,27.1
2022-08-26T21:33:41.085Z,24
2022-08-26T21:35:41.124Z,28.8
2022-08-26T21:37:41.620Z,28.6
2022-08-26T21:39:41.948Z,25.3
2022-08-26T21:41:43.582Z,28
2022-08-26T21:43:42.866Z,25.3
2022-08-26T21:45:43.269Z,24.2
2022-08-26T21:47:44.005Z,21.3
2022-08-26T21:49:44.036Z,20.5
2022-08-26T21:51:46.414Z,25.3
2022-08-26T21:53:45.012Z,23.1
2022-08-26T21:55:45.344Z,23.7
2022-08-26T21:57:45.732Z,32.3
2022-08-26T21:59:46.067Z,29.6
2022-08-26T22:01:47.145Z,29.5
2022-08-26T22:03:48.070Z,32.4
2022-08-26T22:05:48.428Z,22.9
2022-08-26T22:07:47.656Z,23.8
2022-08-26T22:09:48.051Z,25.8
2022-08-26T22:11:48.495Z,25.1
2022-08-26T22:13:49.917Z,24.5
2022-08-26T22:15:49.570Z,27.4
2022-08-26T22:17:49.834Z,29
2022-08-26T22:19:49.931Z,26.6
2022-08-26T22:21:52.492Z,23.7
2022-08-26T22:23:51.269Z,26
2022-08-26T22:25:51.075Z,24.2
2022-08-26T22:27:51.637Z,26.3
2022-08-26T22:29:51.812Z,24.8
2022-08-26T22:31:52.405Z,23.1
2022-08-26T22:33:52.551Z,21
2022-08-26T22:35:53.412Z,22.3
2022-08-26T22:37:53.387Z,23
2022-08-26T22:39:53.731Z,22
2022-08-26T22:41:54.236Z,22.2
2022-08-26T22:43:54.356Z,21.5
2022-08-26T22:45:55.179Z,21.3
2022-08-26T22:47:55.057Z,25.1
2022-08-26T22:49:57.398Z,22
2022-08-26T22:51:55.956Z,25.4
2022-08-26T22:53:56.157Z,28.6
2022-08-26T22:55:56.560Z,21.3
2022-08-26T22:57:56.830Z,25.3
2022-08-26T22:59:57.364Z,25.4
2022-08-26T23:01:57.678Z,25
2022-08-26T23:03:57.857Z,21
2022-08-26T23:05:58.440Z,21.7
2022-08-26T23:07:58.604Z,25.2
2022-08-26T23:09:59.022Z,22.1
2022-08-26T23:11:59.384Z,21.9
2022-08-26T23:13:59.810Z,25.3
2022-08-26T23:16:01.598Z,30
2022-08-26T23:18:01.331Z,24.3
2022-08-26T23:20:01.058Z,22.9
2022-08-26T23:22:01.121Z,25.4
2022-08-26T23:24:01.537Z,20.8
2022-08-26T23:26:05.810Z,22.6
2022-08-26T23:28:03.011Z,25.1
2022-08-26T23:30:04.022Z,25.1
2022-08-26T23:32:03.775Z,22.4
2022-08-26T23:34:03.076Z,24.1
2022-08-26T23:36:06.071Z,24.2
2022-08-26T23:38:04.071Z,25.3
2022-08-26T23:40:07.151Z,25.3
2022-08-26T23:42:04.657Z,27.7
2022-08-26T23:44:05.300Z,26.6
2022-08-26T23:46:05.361Z,25.5
2022-08-26T23:48:05.775Z,23.5
2022-08-26T23:50:07.542Z,24.2
2022-08-26T23:52:06.823Z,27
2022-08-26T23:54:06.326Z,27.2
2022-08-26T23:56:12.394Z,23.4
2022-08-26T23:58:07.048Z,29.7
